KMVE/MVE METAR and TAF weather

Enter ICAO airport designator
Station Type Date Time Source
KMVE METAR 2020/03/29 21:55 UTC NOAA

KMVE 292155Z AUTO 36014G21KT 10SM CLR 12/M04 A2998 RMK AO2


Station Type Date Time Source
KMVE Decoded METAR 2020/03/29 21:55 UTC NOAA

Montevideo, Montevideo-Chippewa County Airport, MN, United States (KMVE) 44-58N 095-43W
Mar 29, 2020 - 05:55 PM EDT / 2020.03.29 2155 UTC
Wind: from the N (360 degrees) at 16 MPH (14 KT) gusting to 24 MPH (21 KT):0
Visibility: 10 mile(s):0
Sky conditions: clear
Temperature: 53 F (12 C)
Dew Point: 24 F (-4 C)
Relative Humidity: 32%
Pressure (altimeter): 29.98 in. Hg (1015 hPa)
ob: KMVE 292155Z AUTO 36014G21KT 10SM CLR 12/M04 A2998 RMK AO2
cycle: 22

Station Type Date Time Source
KMVE TAF UTC NOAA

Error!

Example: see airport list